.
WxDataArchive / Data Records for 2008-08-22
2008-08-21 August 2008 2008-08-23

Data Records for Friday, 22 August 2008

Time	Temp	Chill	HIndex	Humid	Dewpt	 Wind 	HiWind	WindDir	Rain 	Barom 
-----	----	-----	------	-----	-----	------	------	-------	-----	----- 
00:00	74.0	74.0	74.0	83	68.5	0	1	90	0.00	30.016 
00:05	74.0	74.0	74.0	83	68.5	0	0	---	0.00	30.014 
00:10	74.0	74.0	74.0	83	68.5	0	1	90	0.00	30.015 
00:15	74.0	74.0	74.0	83	68.5	0	0	---	0.00	30.013 
00:20	73.9	73.9	73.9	84	68.7	0	1	90	0.00	30.008 
00:25	73.9	73.9	73.9	84	68.7	0	0	---	0.00	30.006 
00:30	73.7	73.7	73.7	84	68.6	0	0	---	0.00	30.005 
00:35	73.7	73.7	73.7	84	68.6	0	0	---	0.00	30.004 
00:40	73.5	73.5	73.5	84	68.4	0	0	---	0.00	30.004 
00:45	73.5	73.5	73.5	84	68.4	0	0	---	0.00	30.004 
00:50	73.5	73.5	73.5	85	68.7	0	1	90	0.00	30.003 
00:55	73.3	73.3	73.3	85	68.5	0	0	---	0.00	30.004 
01:00	73.3	73.3	73.3	85	68.5	0	0	---	0.00	30.003 
01:05	73.3	73.3	73.3	85	68.5	0	0	---	0.00	30.003 
01:10	73.2	73.2	73.2	85	68.4	0	0	---	0.00	30.003 
01:15	73.2	73.2	73.2	85	68.4	0	0	---	0.00	30.002 
01:20	73.2	73.2	73.2	85	68.4	0	0	---	0.00	30.002 
01:25	73.0	73.0	73.0	85	68.2	0	0	---	0.00	30.003 
01:30	73.2	73.2	73.2	85	68.4	0	1	90	0.00	30.002 
01:35	73.2	73.2	73.2	85	68.4	0	1	90	0.00	30.002 
01:40	73.2	73.2	73.2	85	68.4	0	0	---	0.00	30.002 
01:45	73.2	73.2	73.2	86	68.7	0	0	---	0.00	30.002 
01:50	73.0	73.0	73.0	86	68.6	0	0	---	0.00	30.002 
01:55	73.0	73.0	73.0	86	68.6	0	0	---	0.00	30.002 
02:00	73.0	73.0	73.0	86	68.6	0	0	---	0.00	30.002 
02:05	72.8	72.8	72.8	86	68.4	0	0	---	0.00	30.002 
02:10	72.8	72.8	72.8	87	68.7	0	0	---	0.00	30.001 
02:15	72.7	72.7	72.7	87	68.6	0	0	---	0.00	30.001 
02:20	72.7	72.7	72.7	87	68.6	0	0	---	0.00	30.002 
02:25	72.7	72.7	72.7	87	68.6	0	0	---	0.00	30.003 
02:30	72.5	72.5	72.5	88	68.7	0	0	---	0.00	30.002 
02:35	72.5	72.5	72.5	88	68.7	0	0	---	0.00	30.002 
02:40	72.5	72.5	72.5	88	68.7	0	0	---	0.00	30.002 
02:45	72.5	72.5	72.5	88	68.7	0	0	---	0.00	30.001 
02:50	72.5	72.5	72.5	88	68.7	0	1	90	0.00	30.000 
02:55	72.5	72.5	72.5	88	68.7	0	0	---	0.00	30.001 
03:00	72.5	72.5	72.5	88	68.7	0	0	---	0.00	30.001 
03:05	72.5	72.5	72.5	88	68.7	0	0	---	0.00	29.999 
03:10	72.5	72.5	72.5	88	68.7	0	0	---	0.00	29.999 
03:15	72.5	72.5	72.5	87	68.4	0	1	90	0.00	29.999 
03:20	72.7	72.7	72.7	87	68.6	0	1	90	0.00	30.000 
03:25	72.7	72.7	72.7	86	68.3	0	1	90	0.00	30.001 
03:30	72.8	72.8	72.8	85	68.0	0	1	90	0.00	30.000 
03:35	72.8	72.8	72.8	85	68.0	0	1	90	0.00	30.000 
03:40	72.8	72.8	72.8	84	67.7	0	0	---	0.00	30.000 
03:45	72.8	72.8	72.8	84	67.7	0	1	90	0.00	30.000 
03:50	73.0	73.0	73.0	84	67.9	0	2	90	0.00	30.000 
03:55	73.0	73.0	73.0	83	67.5	0	1	90	0.00	30.000 
04:00	73.0	73.0	73.0	83	67.5	0	0	---	0.00	30.001 
04:05	73.0	73.0	73.0	83	67.5	0	0	---	0.00	30.003 
04:10	72.8	72.8	72.8	84	67.7	0	0	---	0.00	30.004 
04:15	72.8	72.8	72.8	84	67.7	0	0	---	0.00	30.005 
04:20	72.7	72.7	72.7	84	67.6	0	0	---	0.00	30.006 
04:25	72.7	72.7	72.7	84	67.6	0	0	---	0.00	30.006 
04:30	72.5	72.5	72.5	84	67.4	0	0	---	0.00	30.005 
04:35	72.5	72.5	72.5	84	67.4	0	0	---	0.00	30.005 
04:40	72.5	72.5	72.5	84	67.4	0	0	---	0.00	30.005 
04:45	72.5	72.5	72.5	84	67.4	0	0	---	0.00	30.006 
04:50	72.3	72.3	72.3	83	66.8	0	1	90	0.00	30.011 
04:55	72.3	72.3	72.3	83	66.8	0	1	90	0.00	30.012 
05:00	72.1	72.1	72.1	82	66.3	0	0	---	0.00	30.012 
05:05	72.1	72.1	72.1	82	66.3	0	0	---	0.00	30.012 
05:10	72.1	72.1	72.1	82	66.3	0	0	---	0.00	30.014 
05:15	72.1	72.1	72.1	82	66.3	0	0	---	0.00	30.011 
05:20	72.1	72.1	72.1	82	66.3	0	0	---	0.00	30.010 
05:25	72.0	72.0	72.0	82	66.2	0	0	---	0.00	30.012 
05:30	71.8	71.8	71.8	83	66.3	0	0	---	0.00	30.014 
05:35	71.8	71.8	71.8	83	66.3	0	0	---	0.00	30.018 
05:40	71.6	71.6	71.6	84	66.5	0	0	---	0.00	30.018 
05:45	71.5	71.5	71.5	84	66.4	0	0	---	0.00	30.019 
05:50	71.5	71.5	71.5	84	66.4	0	0	---	0.00	30.020 
05:55	71.3	71.3	71.3	85	66.5	0	0	---	0.00	30.021 
06:00	71.3	71.3	71.3	85	66.5	0	0	---	0.00	30.026 
06:05	71.1	71.1	71.1	85	66.4	0	0	---	0.00	30.029 
06:10	71.1	71.1	71.1	85	66.4	0	0	---	0.00	30.028 
06:15	71.1	71.1	71.1	85	66.4	0	1	90	0.00	30.028 
06:20	71.3	71.3	71.3	85	66.5	0	1	90	0.00	30.031 
06:25	71.3	71.3	71.3	85	66.5	0	0	---	0.00	30.034 
06:30	71.3	71.3	71.3	85	66.5	0	0	---	0.00	30.035 
06:35	71.3	71.3	71.3	84	66.2	0	0	---	0.00	30.036 
06:40	71.5	71.5	71.5	84	66.4	0	1	90	0.00	30.035 
06:45	71.6	71.6	71.6	84	66.5	0	0	---	0.00	30.035 
06:50	71.8	71.8	71.8	83	66.3	0	0	---	0.00	30.036 
06:55	72.1	72.1	72.1	82	66.3	0	1	90	0.00	30.037 
07:00	72.5	72.5	72.5	82	66.7	0	1	90	0.00	30.036 
07:05	72.8	72.8	72.8	80	66.3	0	1	90	0.00	30.038 
07:10	73.3	73.3	73.3	78	66.0	0	2	90	0.00	30.038 
07:15	73.7	73.7	73.7	77	66.0	1	2	90	0.00	30.039 
07:20	74.2	74.2	74.2	76	66.1	1	3	90	0.00	30.038 
07:25	74.6	74.6	74.6	75	66.1	0	1	90	0.00	30.038 
07:30	75.1	75.1	76.3	75	66.6	0	4	90	0.00	30.038 
07:35	75.4	75.4	76.8	73	66.1	0	3	90	0.00	30.039 
07:40	75.8	75.8	77.3	73	66.5	0	2	90	0.00	30.038 
07:45	76.0	76.0	77.5	72	66.3	1	4	112	0.00	30.040 
07:50	76.1	76.1	77.7	72	66.4	0	1	112	0.00	30.040 
07:55	76.3	76.3	77.9	72	66.6	0	2	112	0.00	30.041 
08:00	76.3	76.3	77.9	72	66.6	0	2	112	0.00	30.045 
08:05	76.3	76.3	77.9	72	66.6	0	1	112	0.00	30.049 
08:10	76.3	76.3	77.9	72	66.6	0	1	112	0.00	30.045 
08:15	76.5	76.5	78.1	72	66.8	0	1	112	0.00	30.048 
08:20	76.5	76.5	78.1	72	66.8	0	2	112	0.00	30.050 
08:25	76.5	76.5	78.1	72	66.8	0	3	112	0.00	30.052 
08:30	76.7	76.7	78.4	72	67.0	0	2	112	0.00	30.052 
08:35	76.8	76.8	78.5	71	66.7	0	2	112	0.00	30.053 
08:40	77.0	77.0	78.8	69	66.0	1	3	68	0.00	30.052 
08:45	77.4	77.4	79.2	69	66.4	0	2	68	0.00	30.052 
08:50	77.4	77.4	79.2	68	66.0	1	3	68	0.00	30.053 
08:55	77.4	77.4	79.2	67	65.6	0	2	68	0.00	30.051 
09:00	77.6	77.6	79.5	68	66.2	0	1	68	0.00	30.051 
09:05	77.6	77.6	79.5	67	65.8	0	3	68	0.00	30.052 
09:10	77.7	77.7	79.6	68	66.3	0	2	68	0.00	30.051 
09:15	77.9	77.9	79.8	67	66.0	0	1	68	0.00	30.052 
09:20	78.3	78.3	80.3	67	66.4	0	2	68	0.00	30.052 
09:25	78.5	78.5	80.5	66	66.2	0	2	68	0.00	30.053 
09:30	78.8	78.8	80.8	65	66.0	0	2	68	0.00	30.053 
09:35	79.2	79.2	81.3	65	66.4	1	2	68	0.00	30.054 
09:40	79.6	79.6	81.7	64	66.3	0	3	68	0.00	30.053 
09:45	79.9	79.9	82.1	64	66.6	0	1	68	0.00	30.055 
09:50	80.3	80.3	82.4	62	66.1	1	3	68	0.00	30.058 
09:55	80.7	80.7	82.9	62	66.4	0	2	0	0.00	30.059 
10:00	81.1	81.1	83.5	62	66.8	0	1	0	0.00	30.059 
10:05	81.4	81.4	83.8	61	66.6	1	3	112	0.00	30.060 
10:10	81.4	81.4	83.6	60	66.2	0	2	112	0.00	30.058 
10:15	81.6	81.6	83.9	60	66.3	0	1	112	0.00	30.062 
10:20	81.4	81.4	83.8	61	66.6	0	2	112	0.00	30.066 
10:25	81.2	81.2	83.6	62	66.9	0	1	112	0.00	30.067 
10:30	81.2	81.2	83.5	61	66.4	0	1	112	0.00	30.069 
10:35	81.2	81.2	83.5	61	66.4	0	2	112	0.00	30.070 
10:40	81.2	81.2	83.6	62	66.9	0	1	112	0.00	30.069 
10:45	81.2	81.2	83.5	61	66.4	0	2	112	0.00	30.070 
10:50	81.4	81.4	83.9	62	67.1	0	2	112	0.00	30.071 
10:55	81.6	81.6	84.2	62	67.3	0	1	112	0.00	30.071 
11:00	81.8	81.8	84.5	62	67.5	0	2	112	0.00	30.072 
11:05	81.8	81.8	84.5	62	67.5	0	1	112	0.00	30.071 
11:10	82.0	82.0	84.4	60	66.7	0	2	112	0.00	30.070 
11:15	82.4	82.4	85.0	60	67.1	0	2	112	0.00	30.069 
11:20	82.8	82.8	85.2	58	66.5	0	2	112	0.00	30.068 
11:25	83.6	83.6	86.4	58	67.2	0	2	112	0.00	30.067 
11:30	84.0	84.0	86.7	57	67.1	0	3	112	0.00	30.066 
11:35	84.1	84.1	87.2	58	67.7	1	3	112	0.00	30.067 
11:40	84.3	84.3	87.0	56	66.9	0	2	158	0.00	30.069 
11:45	84.5	84.5	87.8	58	68.1	0	1	158	0.00	30.069 
11:50	84.5	84.5	87.3	56	67.0	0	1	158	0.00	30.069 
11:55	84.3	84.3	87.2	57	67.4	0	2	158	0.00	30.069 
12:00	84.5	84.5	87.5	57	67.6	1	3	248	0.00	30.068 
12:05	84.5	84.5	87.3	56	67.0	0	2	248	0.00	30.068 
12:10	84.7	84.7	87.6	56	67.2	0	2	248	0.00	30.068 
12:15	85.3	85.3	88.5	56	67.8	0	2	248	0.00	30.065 
12:20	85.7	85.7	88.9	55	67.6	1	3	248	0.00	30.066 
12:25	85.9	85.9	89.2	55	67.8	0	2	248	0.00	30.066 
12:30	86.3	86.3	89.6	54	67.7	1	3	248	0.00	30.066 
12:35	86.5	86.5	89.9	54	67.8	1	4	248	0.00	30.065 
12:40	87.0	87.0	90.8	54	68.3	0	2	135	0.00	30.066 
12:45	87.4	87.4	91.5	54	68.7	0	3	225	0.00	30.065 
12:50	88.0	88.0	92.2	53	68.7	1	3	225	0.00	30.065 
12:55	88.2	88.2	91.8	51	67.7	1	3	338	0.00	30.066 
13:00	88.2	88.2	92.5	53	68.9	0	3	68	0.00	30.065 
13:05	88.6	88.6	92.5	51	68.1	1	3	68	0.00	30.063 
13:10	88.2	88.2	92.5	53	68.9	1	4	270	0.00	30.064 
13:15	88.0	88.0	91.0	50	67.0	1	4	202	0.00	30.064 
13:20	87.6	87.6	90.7	51	67.2	2	5	248	0.00	30.064 
13:25	87.2	87.2	90.1	51	66.8	2	5	248	0.00	30.064 
13:30	87.0	87.0	90.1	52	67.2	1	4	248	0.00	30.063 
13:35	87.0	87.0	89.1	49	65.5	2	5	270	0.00	30.063 
13:40	87.2	87.2	89.1	48	65.1	2	7	270	0.00	30.062 
13:45	87.4	87.4	89.1	47	64.7	2	7	270	0.00	30.061 
13:50	87.4	87.4	89.4	48	65.3	2	6	248	0.00	30.061 
13:55	87.4	87.4	89.7	49	65.9	1	4	248	0.00	30.060 
14:00	87.4	87.4	89.1	47	64.7	3	4	270	0.00	30.057 
14:05	87.4	87.4	88.8	46	64.0	2	5	270	0.00	30.053 
14:10	87.8	87.8	89.7	47	65.0	3	5	270	0.00	30.051 
14:15	88.0	88.0	90.0	47	65.2	3	6	248	0.00	30.051 
14:20	87.8	87.8	89.7	47	65.0	2	4	270	0.00	30.054 
14:25	88.0	88.0	89.7	46	64.6	3	6	248	0.00	30.057 
14:30	88.0	88.0	89.7	46	64.6	3	6	270	0.00	30.058 
14:35	88.2	88.2	90.3	47	65.4	2	6	248	0.00	30.060 
14:40	88.4	88.4	90.3	46	64.9	3	7	270	0.00	30.057 
14:45	88.2	88.2	90.7	48	66.0	2	10	270	0.00	30.052 
14:50	88.4	88.4	91.0	48	66.2	1	4	270	0.00	30.051 
14:55	88.4	88.4	91.3	49	66.8	1	4	270	0.00	30.051 
15:00	88.0	88.0	91.0	50	67.0	2	5	270	0.00	30.048 
15:05	87.4	87.4	89.4	48	65.3	2	7	248	0.00	30.047 
15:10	87.4	87.4	89.7	49	65.9	0	2	248	0.00	30.046 
15:15	87.2	87.2	89.7	50	66.3	1	2	248	0.00	30.047 
15:20	87.0	87.0	89.7	51	66.6	1	4	270	0.00	30.045 
15:25	86.5	86.5	89.9	54	67.8	1	5	270	0.00	30.045 
15:30	86.1	86.1	89.9	56	68.5	1	3	270	0.00	30.044 
15:35	86.1	86.1	90.2	57	69.1	1	3	270	0.00	30.044 
15:40	85.9	85.9	90.2	58	69.4	1	3	270	0.00	30.044 
15:45	85.7	85.7	89.9	58	69.2	1	3	270	0.00	30.043 
15:50	85.1	85.1	89.1	59	69.1	1	3	270	0.00	30.043 
15:55	84.7	84.7	88.7	60	69.2	1	3	270	0.00	30.038 
16:00	84.5	84.5	88.7	61	69.5	0	2	270	0.00	30.036 
16:05	84.5	84.5	88.7	61	69.5	1	2	270	0.00	30.036 
16:10	84.3	84.3	87.8	59	68.4	0	2	270	0.00	30.035 
16:15	84.3	84.3	88.0	60	68.9	1	2	270	0.00	30.037 
16:20	84.1	84.1	87.7	60	68.7	0	2	270	0.00	30.038 
16:25	84.1	84.1	87.7	60	68.7	0	2	270	0.00	30.039 
16:30	84.0	84.0	87.5	60	68.6	0	1	270	0.00	30.040 
16:35	84.0	84.0	87.5	60	68.6	0	1	270	0.00	30.040 
16:40	84.1	84.1	87.4	59	68.2	1	2	270	0.00	30.042 
16:45	84.1	84.1	87.4	59	68.2	0	1	270	0.00	30.041 
16:50	84.0	84.0	87.0	58	67.6	0	2	270	0.00	30.041 
16:55	83.8	83.8	86.7	58	67.4	0	2	270	0.00	30.042 
17:00	83.8	83.8	86.7	58	67.4	0	1	270	0.00	30.046 
17:05	83.6	83.6	86.4	58	67.2	0	1	270	0.00	30.047 
17:10	83.6	83.6	86.4	58	67.2	0	2	270	0.00	30.046 
17:15	83.6	83.6	86.4	58	67.2	0	1	270	0.00	30.042 
17:20	83.8	83.8	86.7	58	67.4	0	1	270	0.00	30.042 
17:25	84.0	84.0	87.0	58	67.6	0	2	270	0.00	30.045 
17:30	84.0	84.0	86.7	57	67.1	0	1	270	0.00	30.047 
17:35	84.0	84.0	86.7	57	67.1	0	2	270	0.00	30.044 
17:40	84.0	84.0	86.7	57	67.1	0	1	270	0.00	30.041 
17:45	83.8	83.8	86.4	57	66.9	0	2	270	0.00	30.042 
17:50	83.6	83.6	86.4	58	67.2	0	1	270	0.00	30.042 
17:55	83.6	83.6	86.4	58	67.2	0	0	---	0.00	30.041 
18:00	83.4	83.4	86.3	59	67.5	0	1	270	0.00	30.041 
18:05	83.4	83.4	86.3	59	67.5	0	1	270	0.00	30.039 
18:10	83.4	83.4	86.1	58	67.0	0	0	---	0.00	30.037 
18:15	83.2	83.2	85.8	58	66.9	0	0	---	0.00	30.035 
18:20	83.2	83.2	85.8	58	66.9	0	1	270	0.00	30.035 
18:25	83.2	83.2	85.8	58	66.9	0	0	---	0.00	30.035 
18:30	83.0	83.0	85.7	59	67.2	0	0	---	0.00	30.035 
18:35	82.8	82.8	85.4	59	67.0	0	0	---	0.00	30.035 
18:40	82.6	82.6	85.1	59	66.8	0	0	---	0.00	30.035 
18:45	82.6	82.6	85.3	60	67.3	0	0	---	0.00	30.034 
18:50	82.4	82.4	84.8	59	66.6	0	1	270	0.00	30.034 
18:55	82.4	82.4	85.2	61	67.6	0	1	270	0.00	30.033 
19:00	82.2	82.2	85.3	63	68.3	0	1	270	0.00	30.033 
19:05	81.8	81.8	84.9	64	68.4	0	2	270	0.00	30.030 
19:10	81.4	81.4	84.4	65	68.5	0	2	270	0.00	30.032 
19:15	81.1	81.1	84.1	66	68.6	0	1	270	0.00	30.034 
19:20	80.7	80.7	83.7	67	68.7	0	1	270	0.00	30.034 
19:25	80.3	80.3	83.2	68	68.8	0	1	270	0.00	30.037 
19:30	80.1	80.1	83.0	69	69.0	0	1	270	0.00	30.037 
19:35	79.8	79.8	82.5	69	68.7	0	1	270	0.00	30.036 
19:40	79.6	79.6	82.2	69	68.5	0	0	---	0.00	30.035 
19:45	79.2	79.2	81.7	70	68.5	0	0	---	0.00	30.037 
19:50	79.0	79.0	81.5	71	68.8	0	0	---	0.00	30.038 
19:55	78.6	78.6	80.9	71	68.4	0	0	---	0.00	30.038 
20:00	78.5	78.5	80.8	72	68.7	0	0	---	0.00	30.038 
20:05	78.1	78.1	80.3	73	68.7	0	0	---	0.00	30.036 
20:10	77.9	77.9	80.0	73	68.5	0	1	270	0.00	30.038 
20:15	77.6	77.6	79.6	74	68.6	0	1	270	0.00	30.038 
20:20	77.4	77.4	79.3	74	68.4	0	0	---	0.00	30.039 
20:25	77.4	77.4	79.3	75	68.8	0	0	---	0.00	30.041 
20:30	77.2	77.2	79.0	75	68.6	0	0	---	0.00	30.040 
20:35	77.0	77.0	78.7	76	68.8	0	0	---	0.00	30.043 
20:40	76.8	76.8	78.4	77	69.0	0	0	---	0.00	30.046 
20:45	76.7	76.7	78.2	77	68.9	0	0	---	0.00	30.048 
20:50	76.5	76.5	77.9	77	68.7	0	0	---	0.00	30.050 
20:55	76.3	76.3	77.6	78	68.9	0	0	---	0.00	30.051 
21:00	76.1	76.1	77.3	78	68.7	0	0	---	0.00	30.052 
21:05	76.0	76.0	77.0	80	69.4	0	1	270	0.00	30.052 
21:10	75.8	75.8	76.7	80	69.2	0	0	---	0.00	30.053 
21:15	75.8	75.8	76.7	80	69.2	0	0	---	0.00	30.053 
21:20	75.8	75.8	76.7	80	69.2	0	0	---	0.00	30.053 
21:25	75.8	75.8	76.7	80	69.2	0	0	---	0.00	30.052 
21:30	75.8	75.8	76.7	80	69.2	0	0	---	0.00	30.054 
21:35	75.8	75.8	76.7	80	69.2	0	1	270	0.00	30.054 
21:40	75.8	75.8	76.7	80	69.2	0	0	---	0.00	30.052 
21:45	75.8	75.8	76.7	80	69.2	0	1	270	0.00	30.053 
21:50	75.8	75.8	76.7	80	69.2	0	0	---	0.00	30.054 
21:55	75.8	75.8	76.7	80	69.2	0	0	---	0.00	30.052 
22:00	75.8	75.8	76.7	80	69.2	0	1	270	0.00	30.053 
22:05	75.6	75.6	76.4	80	69.0	0	1	270	0.00	30.051 
22:10	75.6	75.6	76.4	80	69.0	0	1	270	0.00	30.049 
22:15	75.4	75.4	76.1	80	68.8	0	1	270	0.00	30.050 
22:20	75.4	75.4	76.1	80	68.8	0	0	---	0.00	30.050 
22:25	75.3	75.3	75.9	81	69.1	0	0	---	0.00	30.050 
22:30	75.1	75.1	75.6	81	68.9	0	1	270	0.00	30.050 
22:35	74.9	74.9	74.9	81	68.7	0	0	---	0.00	30.050 
22:40	74.7	74.7	74.7	81	68.5	0	1	270	0.00	30.051 
22:45	74.6	74.6	74.6	81	68.4	0	0	---	0.00	30.052 
22:50	74.4	74.4	74.4	82	68.5	0	0	---	0.00	30.056 
22:55	74.2	74.2	74.2	82	68.3	0	0	---	0.00	30.057 
23:00	74.0	74.0	74.0	82	68.1	0	0	---	0.00	30.060 
23:05	73.7	73.7	73.7	83	68.2	0	2	270	0.00	30.061 
23:10	73.5	73.5	73.5	83	68.0	0	0	---	0.00	30.061 
23:15	73.3	73.3	73.3	84	68.2	0	0	---	0.00	30.063 
23:20	73.2	73.2	73.2	84	68.1	0	0	---	0.00	30.062 
23:25	73.0	73.0	73.0	84	67.9	0	0	---	0.00	30.063 
23:30	72.8	72.8	72.8	85	68.0	0	0	---	0.00	30.062 
23:35	72.7	72.7	72.7	85	67.9	0	0	---	0.00	30.061 
23:40	72.3	72.3	72.3	85	67.5	0	0	---	0.00	30.062 
23:45	72.1	72.1	72.1	86	67.7	0	1	270	0.00	30.064 
23:50	72.0	72.0	72.0	87	67.9	0	1	270	0.00	30.065 
23:55	72.0	72.0	72.0	87	67.9	0	1	270	0.00	30.064 

CoCoRaHS
IN-AL-39
A2 Web Hosting
Creative Commons License
GoDaddy
Look for:

loaded 2017-12-13 10:21:49 • last modified 2010-11-18 10:43:29
Privacy PolicyDisclaimer
• wx.awcolley.com is powered by PmWiki v.2002016 •
• all content (unless otherwise noted) © 2017 A W Colley